sensor_id;sensor_type;location;lat;lon;timestamp;P1;durP1;ratioP1;P2;durP2;ratioP2
48487;SDS011;34289;48.572;13.378;2022-08-06T00:00:06;8.50;;;6.47;;
48487;SDS011;34289;48.572;13.378;2022-08-06T00:02:33;8.48;;;6.05;;
48487;SDS011;34289;48.572;13.378;2022-08-06T00:04:59;8.40;;;6.38;;
48487;SDS011;34289;48.572;13.378;2022-08-06T00:07:27;9.18;;;6.97;;
48487;SDS011;34289;48.572;13.378;2022-08-06T00:09:52;10.43;;;6.65;;
48487;SDS011;34289;48.572;13.378;2022-08-06T00:12:18;9.07;;;6.22;;
48487;SDS011;34289;48.572;13.378;2022-08-06T00:14:44;8.55;;;6.88;;
48487;SDS011;34289;48.572;13.378;2022-08-06T00:17:10;9.23;;;6.85;;
48487;SDS011;34289;48.572;13.378;2022-08-06T00:19:35;12.63;;;7.55;;
48487;SDS011;34289;48.572;13.378;2022-08-06T00:22:01;11.65;;;6.90;;
48487;SDS011;34289;48.572;13.378;2022-08-06T00:24:26;8.38;;;6.05;;
48487;SDS011;34289;48.572;13.378;2022-08-06T00:26:52;8.52;;;6.57;;
48487;SDS011;34289;48.572;13.378;2022-08-06T00:29:18;15.40;;;6.93;;
48487;SDS011;34289;48.572;13.378;2022-08-06T00:31:43;12.57;;;7.00;;
48487;SDS011;34289;48.572;13.378;2022-08-06T00:34:09;9.75;;;6.68;;
48487;SDS011;34289;48.572;13.378;2022-08-06T00:36:35;10.55;;;6.68;;
48487;SDS011;34289;48.572;13.378;2022-08-06T00:39:03;9.07;;;6.43;;
48487;SDS011;34289;48.572;13.378;2022-08-06T00:41:31;8.68;;;6.70;;
48487;SDS011;34289;48.572;13.378;2022-08-06T00:43:58;8.93;;;7.60;;
48487;SDS011;34289;48.572;13.378;2022-08-06T00:46:27;7.15;;;6.43;;
48487;SDS011;34289;48.572;13.378;2022-08-06T00:48:53;13.40;;;6.90;;
48487;SDS011;34289;48.572;13.378;2022-08-06T00:51:19;9.82;;;6.50;;
48487;SDS011;34289;48.572;13.378;2022-08-06T00:53:45;7.72;;;6.35;;
48487;SDS011;34289;48.572;13.378;2022-08-06T00:56:11;10.18;;;6.47;;
48487;SDS011;34289;48.572;13.378;2022-08-06T00:58:37;13.32;;;6.25;;
48487;SDS011;34289;48.572;13.378;2022-08-06T01:01:03;10.45;;;5.97;;
48487;SDS011;34289;48.572;13.378;2022-08-06T01:03:28;8.75;;;5.63;;
48487;SDS011;34289;48.572;13.378;2022-08-06T01:05:55;11.13;;;5.95;;
48487;SDS011;34289;48.572;13.378;2022-08-06T01:08:20;9.75;;;6.50;;
48487;SDS011;34289;48.572;13.378;2022-08-06T01:10:46;11.95;;;6.55;;
48487;SDS011;34289;48.572;13.378;2022-08-06T01:13:12;8.27;;;6.75;;
48487;SDS011;34289;48.572;13.378;2022-08-06T01:15:38;9.90;;;6.72;;
48487;SDS011;34289;48.572;13.378;2022-08-06T01:18:09;9.85;;;5.97;;
48487;SDS011;34289;48.572;13.378;2022-08-06T01:20:47;10.40;;;6.43;;
48487;SDS011;34289;48.572;13.378;2022-08-06T01:23:43;9.05;;;6.47;;
48487;SDS011;34289;48.572;13.378;2022-08-06T01:26:28;7.43;;;6.25;;
48487;SDS011;34289;48.572;13.378;2022-08-06T01:34:20;8.93;;;6.75;;
48487;SDS011;34289;48.572;13.378;2022-08-06T01:36:54;9.13;;;6.72;;
48487;SDS011;34289;48.572;13.378;2022-08-06T01:39:52;9.32;;;7.30;;
48487;SDS011;34289;48.572;13.378;2022-08-06T01:42:25;10.95;;;7.65;;
48487;SDS011;34289;48.572;13.378;2022-08-06T01:44:54;10.13;;;7.28;;
48487;SDS011;34289;48.572;13.378;2022-08-06T01:47:21;8.60;;;7.70;;
48487;SDS011;34289;48.572;13.378;2022-08-06T01:49:52;10.05;;;7.68;;
48487;SDS011;34289;48.572;13.378;2022-08-06T01:52:20;11.13;;;8.13;;
48487;SDS011;34289;48.572;13.378;2022-08-06T01:54:48;8.80;;;6.88;;
48487;SDS011;34289;48.572;13.378;2022-08-06T01:57:19;9.05;;;7.50;;
48487;SDS011;34289;48.572;13.378;2022-08-06T01:59:48;11.00;;;7.63;;
48487;SDS011;34289;48.572;13.378;2022-08-06T02:02:18;8.98;;;7.22;;
48487;SDS011;34289;48.572;13.378;2022-08-06T02:04:47;7.50;;;6.55;;
48487;SDS011;34289;48.572;13.378;2022-08-06T02:07:17;10.82;;;6.90;;
48487;SDS011;34289;48.572;13.378;2022-08-06T02:09:47;8.25;;;6.70;;
48487;SDS011;34289;48.572;13.378;2022-08-06T02:12:17;6.57;;;5.93;;
48487;SDS011;34289;48.572;13.378;2022-08-06T02:14:58;8.23;;;6.15;;
48487;SDS011;34289;48.572;13.378;2022-08-06T02:17:35;7.15;;;6.13;;
48487;SDS011;34289;48.572;13.378;2022-08-06T02:20:04;7.32;;;5.78;;
48487;SDS011;34289;48.572;13.378;2022-08-06T02:22:34;6.68;;;5.78;;
48487;SDS011;34289;48.572;13.378;2022-08-06T02:25:03;9.00;;;6.03;;
48487;SDS011;34289;48.572;13.378;2022-08-06T02:27:33;10.45;;;6.28;;
48487;SDS011;34289;48.572;13.378;2022-08-06T02:30:00;6.72;;;5.90;;
48487;SDS011;34289;48.572;13.378;2022-08-06T02:32:26;7.68;;;6.40;;
48487;SDS011;34289;48.572;13.378;2022-08-06T02:34:52;6.82;;;5.75;;
48487;SDS011;34289;48.572;13.378;2022-08-06T02:37:20;6.68;;;5.90;;
48487;SDS011;34289;48.572;13.378;2022-08-06T02:39:50;7.57;;;6.28;;
48487;SDS011;34289;48.572;13.378;2022-08-06T02:47:35;8.07;;;5.60;;
48487;SDS011;34289;48.572;13.378;2022-08-06T02:50:02;7.15;;;6.45;;
48487;SDS011;34289;48.572;13.378;2022-08-06T02:55:23;6.53;;;5.47;;
48487;SDS011;34289;48.572;13.378;2022-08-06T02:57:54;6.22;;;5.55;;
48487;SDS011;34289;48.572;13.378;2022-08-06T03:00:23;10.18;;;6.55;;
48487;SDS011;34289;48.572;13.378;2022-08-06T03:02:52;9.30;;;5.80;;
48487;SDS011;34289;48.572;13.378;2022-08-06T03:05:24;9.02;;;6.78;;
48487;SDS011;34289;48.572;13.378;2022-08-06T03:07:52;7.10;;;6.28;;
48487;SDS011;34289;48.572;13.378;2022-08-06T03:10:23;9.38;;;6.43;;
48487;SDS011;34289;48.572;13.378;2022-08-06T03:12:51;10.73;;;5.90;;
48487;SDS011;34289;48.572;13.378;2022-08-06T03:15:18;13.25;;;6.90;;
48487;SDS011;34289;48.572;13.378;2022-08-06T03:17:45;7.72;;;6.03;;
48487;SDS011;34289;48.572;13.378;2022-08-06T03:20:13;5.95;;;5.30;;
48487;SDS011;34289;48.572;13.378;2022-08-06T03:22:44;7.35;;;5.72;;
48487;SDS011;34289;48.572;13.378;2022-08-06T03:25:13;6.95;;;5.70;;
48487;SDS011;34289;48.572;13.378;2022-08-06T03:27:40;7.47;;;5.93;;
48487;SDS011;34289;48.572;13.378;2022-08-06T03:30:08;6.80;;;6.07;;
48487;SDS011;34289;48.572;13.378;2022-08-06T03:32:34;8.02;;;5.95;;
48487;SDS011;34289;48.572;13.378;2022-08-06T03:35:01;7.22;;;5.25;;
48487;SDS011;34289;48.572;13.378;2022-08-06T03:37:28;8.05;;;5.70;;
48487;SDS011;34289;48.572;13.378;2022-08-06T03:40:00;10.40;;;6.45;;
48487;SDS011;34289;48.572;13.378;2022-08-06T03:42:27;7.55;;;5.53;;
48487;SDS011;34289;48.572;13.378;2022-08-06T03:44:52;6.57;;;5.40;;
48487;SDS011;34289;48.572;13.378;2022-08-06T03:47:22;8.35;;;6.80;;
48487;SDS011;34289;48.572;13.378;2022-08-06T03:49:52;5.30;;;4.80;;
48487;SDS011;34289;48.572;13.378;2022-08-06T03:52:26;5.95;;;4.90;;
48487;SDS011;34289;48.572;13.378;2022-08-06T03:54:55;6.00;;;5.30;;
48487;SDS011;34289;48.572;13.378;2022-08-06T03:57:26;8.88;;;5.60;;
48487;SDS011;34289;48.572;13.378;2022-08-06T04:00:00;9.45;;;5.45;;
48487;SDS011;34289;48.572;13.378;2022-08-06T04:02:29;8.95;;;5.90;;
48487;SDS011;34289;48.572;13.378;2022-08-06T04:04:57;10.68;;;6.13;;
48487;SDS011;34289;48.572;13.378;2022-08-06T04:07:24;8.75;;;5.90;;
48487;SDS011;34289;48.572;13.378;2022-08-06T04:09:51;9.77;;;5.88;;
48487;SDS011;34289;48.572;13.378;2022-08-06T04:12:17;9.40;;;5.72;;
48487;SDS011;34289;48.572;13.378;2022-08-06T04:14:44;7.85;;;5.75;;
48487;SDS011;34289;48.572;13.378;2022-08-06T04:17:09;11.40;;;5.47;;
48487;SDS011;34289;48.572;13.378;2022-08-06T04:19:36;7.88;;;5.10;;
48487;SDS011;34289;48.572;13.378;2022-08-06T04:22:04;9.32;;;5.88;;
48487;SDS011;34289;48.572;13.378;2022-08-06T04:24:30;8.38;;;6.30;;
48487;SDS011;34289;48.572;13.378;2022-08-06T04:26:56;5.75;;;5.15;;
48487;SDS011;34289;48.572;13.378;2022-08-06T04:29:23;9.18;;;5.10;;
48487;SDS011;34289;48.572;13.378;2022-08-06T04:31:50;6.10;;;4.93;;
48487;SDS011;34289;48.572;13.378;2022-08-06T04:34:21;6.15;;;5.55;;
48487;SDS011;34289;48.572;13.378;2022-08-06T04:36:49;8.40;;;5.60;;
48487;SDS011;34289;48.572;13.378;2022-08-06T04:39:16;8.10;;;5.65;;
48487;SDS011;34289;48.572;13.378;2022-08-06T04:41:42;7.43;;;5.43;;
48487;SDS011;34289;48.572;13.378;2022-08-06T04:44:08;6.00;;;5.28;;
48487;SDS011;34289;48.572;13.378;2022-08-06T04:46:34;10.27;;;5.95;;
48487;SDS011;34289;48.572;13.378;2022-08-06T04:49:00;8.65;;;5.20;;
48487;SDS011;34289;48.572;13.378;2022-08-06T04:51:25;7.93;;;5.93;;
48487;SDS011;34289;48.572;13.378;2022-08-06T04:53:51;8.20;;;5.75;;
48487;SDS011;34289;48.572;13.378;2022-08-06T04:56:17;7.22;;;5.53;;
48487;SDS011;34289;48.572;13.378;2022-08-06T04:58:42;6.47;;;5.32;;
48487;SDS011;34289;48.572;13.378;2022-08-06T05:01:09;7.03;;;5.40;;
48487;SDS011;34289;48.572;13.378;2022-08-06T05:03:34;5.55;;;5.05;;
48487;SDS011;34289;48.572;13.378;2022-08-06T05:06:18;8.38;;;5.70;;
48487;SDS011;34289;48.572;13.378;2022-08-06T05:08:50;8.32;;;5.40;;
48487;SDS011;34289;48.572;13.378;2022-08-06T05:11:33;6.13;;;5.53;;
48487;SDS011;34289;48.572;13.378;2022-08-06T05:14:08;6.75;;;5.47;;
48487;SDS011;34289;48.572;13.378;2022-08-06T05:16:38;14.73;;;6.25;;
48487;SDS011;34289;48.572;13.378;2022-08-06T05:19:09;6.38;;;5.78;;
48487;SDS011;34289;48.572;13.378;2022-08-06T05:21:38;6.80;;;5.95;;
48487;SDS011;34289;48.572;13.378;2022-08-06T05:24:05;8.88;;;6.07;;
48487;SDS011;34289;48.572;13.378;2022-08-06T05:26:32;8.10;;;5.97;;
48487;SDS011;34289;48.572;13.378;2022-08-06T05:28:59;9.60;;;6.38;;
48487;SDS011;34289;48.572;13.378;2022-08-06T05:31:35;6.43;;;5.72;;
48487;SDS011;34289;48.572;13.378;2022-08-06T05:34:08;9.32;;;5.85;;
48487;SDS011;34289;48.572;13.378;2022-08-06T05:36:35;8.75;;;5.97;;
48487;SDS011;34289;48.572;13.378;2022-08-06T05:39:01;9.07;;;6.30;;
48487;SDS011;34289;48.572;13.378;2022-08-06T05:41:27;8.30;;;6.75;;
48487;SDS011;34289;48.572;13.378;2022-08-06T05:43:56;8.10;;;6.30;;
48487;SDS011;34289;48.572;13.378;2022-08-06T05:46:24;10.20;;;6.95;;
48487;SDS011;34289;48.572;13.378;2022-08-06T05:49:00;8.85;;;7.35;;
48487;SDS011;34289;48.572;13.378;2022-08-06T05:51:33;10.48;;;7.00;;
48487;SDS011;34289;48.572;13.378;2022-08-06T05:57:23;8.77;;;6.90;;
48487;SDS011;34289;48.572;13.378;2022-08-06T05:59:54;9.35;;;6.75;;
48487;SDS011;34289;48.572;13.378;2022-08-06T06:02:24;7.30;;;6.28;;
48487;SDS011;34289;48.572;13.378;2022-08-06T06:04:55;8.88;;;6.95;;
48487;SDS011;34289;48.572;13.378;2022-08-06T06:07:21;9.10;;;7.60;;
48487;SDS011;34289;48.572;13.378;2022-08-06T06:09:47;10.40;;;7.05;;
48487;SDS011;34289;48.572;13.378;2022-08-06T06:12:14;8.48;;;7.35;;
48487;SDS011;34289;48.572;13.378;2022-08-06T06:14:41;10.23;;;7.20;;
48487;SDS011;34289;48.572;13.378;2022-08-06T06:29:07;9.02;;;7.53;;
48487;SDS011;34289;48.572;13.378;2022-08-06T06:32:10;8.10;;;7.38;;
48487;SDS011;34289;48.572;13.378;2022-08-06T06:37:22;10.57;;;9.27;;
48487;SDS011;34289;48.572;13.378;2022-08-06T06:42:29;14.27;;;10.80;;
48487;SDS011;34289;48.572;13.378;2022-08-06T06:45:12;15.65;;;13.15;;
48487;SDS011;34289;48.572;13.378;2022-08-06T06:47:50;14.30;;;12.00;;
48487;SDS011;34289;48.572;13.378;2022-08-06T06:50:27;13.73;;;12.18;;
48487;SDS011;34289;48.572;13.378;2022-08-06T06:53:03;14.90;;;11.95;;
48487;SDS011;34289;48.572;13.378;2022-08-06T06:55:41;14.30;;;11.65;;
48487;SDS011;34289;48.572;13.378;2022-08-06T07:00:59;14.88;;;11.50;;
48487;SDS011;34289;48.572;13.378;2022-08-06T07:03:28;10.90;;;8.73;;
48487;SDS011;34289;48.572;13.378;2022-08-06T07:05:58;7.65;;;6.85;;
48487;SDS011;34289;48.572;13.378;2022-08-06T07:08:26;10.25;;;8.02;;
48487;SDS011;34289;48.572;13.378;2022-08-06T07:10:53;5.97;;;5.43;;
48487;SDS011;34289;48.572;13.378;2022-08-06T07:13:21;4.43;;;3.22;;
48487;SDS011;34289;48.572;13.378;2022-08-06T07:15:48;5.03;;;3.45;;
48487;SDS011;34289;48.572;13.378;2022-08-06T07:18:16;5.80;;;4.20;;
48487;SDS011;34289;48.572;13.378;2022-08-06T07:20:43;9.32;;;3.97;;
48487;SDS011;34289;48.572;13.378;2022-08-06T07:23:09;4.80;;;3.03;;
48487;SDS011;34289;48.572;13.378;2022-08-06T07:25:36;3.55;;;2.20;;
48487;SDS011;34289;48.572;13.378;2022-08-06T07:28:06;3.15;;;2.30;;
48487;SDS011;34289;48.572;13.378;2022-08-06T07:30:35;3.58;;;1.50;;
48487;SDS011;34289;48.572;13.378;2022-08-06T07:33:02;4.47;;;2.33;;
48487;SDS011;34289;48.572;13.378;2022-08-06T07:35:28;3.08;;;2.13;;
48487;SDS011;34289;48.572;13.378;2022-08-06T07:37:56;2.63;;;1.40;;
48487;SDS011;34289;48.572;13.378;2022-08-06T07:40:29;2.22;;;1.20;;
48487;SDS011;34289;48.572;13.378;2022-08-06T07:43:02;2.90;;;0.90;;
48487;SDS011;34289;48.572;13.378;2022-08-06T07:45:41;1.25;;;1.00;;
48487;SDS011;34289;48.572;13.378;2022-08-06T07:48:09;1.45;;;0.90;;
48487;SDS011;34289;48.572;13.378;2022-08-06T07:50:38;2.85;;;0.90;;
48487;SDS011;34289;48.572;13.378;2022-08-06T07:53:07;0.70;;;0.70;;
48487;SDS011;34289;48.572;13.378;2022-08-06T07:55:35;2.40;;;1.25;;
48487;SDS011;34289;48.572;13.378;2022-08-06T07:58:02;2.88;;;1.00;;
48487;SDS011;34289;48.572;13.378;2022-08-06T08:00:30;3.25;;;2.92;;
48487;SDS011;34289;48.572;13.378;2022-08-06T08:02:56;0.88;;;0.88;;
48487;SDS011;34289;48.572;13.378;2022-08-06T08:05:41;2.15;;;0.52;;
48487;SDS011;34289;48.572;13.378;2022-08-06T08:08:38;1.83;;;0.77;;
48487;SDS011;34289;48.572;13.378;2022-08-06T08:11:04;2.05;;;0.63;;
48487;SDS011;34289;48.572;13.378;2022-08-06T08:13:31;1.80;;;0.70;;
48487;SDS011;34289;48.572;13.378;2022-08-06T08:15:58;1.13;;;0.60;;
48487;SDS011;34289;48.572;13.378;2022-08-06T08:18:31;0.95;;;0.70;;
48487;SDS011;34289;48.572;13.378;2022-08-06T08:20:58;4.75;;;0.60;;
48487;SDS011;34289;48.572;13.378;2022-08-06T08:23:25;0.60;;;0.60;;
48487;SDS011;34289;48.572;13.378;2022-08-06T08:25:53;0.50;;;0.50;;
48487;SDS011;34289;48.572;13.378;2022-08-06T08:28:21;0.85;;;0.50;;
48487;SDS011;34289;48.572;13.378;2022-08-06T08:30:47;1.30;;;0.50;;
48487;SDS011;34289;48.572;13.378;2022-08-06T08:33:12;1.08;;;0.70;;
48487;SDS011;34289;48.572;13.378;2022-08-06T08:35:38;0.70;;;0.70;;
48487;SDS011;34289;48.572;13.378;2022-08-06T08:38:04;0.60;;;0.60;;
48487;SDS011;34289;48.572;13.378;2022-08-06T08:40:30;0.98;;;0.93;;
48487;SDS011;34289;48.572;13.378;2022-08-06T08:42:58;0.60;;;0.60;;
48487;SDS011;34289;48.572;13.378;2022-08-06T08:45:27;2.58;;;0.75;;
48487;SDS011;34289;48.572;13.378;2022-08-06T08:47:53;0.73;;;0.73;;
48487;SDS011;34289;48.572;13.378;2022-08-06T08:50:26;1.10;;;0.70;;
48487;SDS011;34289;48.572;13.378;2022-08-06T08:55:39;1.50;;;0.85;;
48487;SDS011;34289;48.572;13.378;2022-08-06T08:58:05;2.53;;;0.85;;
48487;SDS011;34289;48.572;13.378;2022-08-06T09:00:32;1.73;;;1.10;;
48487;SDS011;34289;48.572;13.378;2022-08-06T09:02:58;2.35;;;2.15;;
48487;SDS011;34289;48.572;13.378;2022-08-06T09:05:27;1.63;;;1.52;;
48487;SDS011;34289;48.572;13.378;2022-08-06T09:07:54;1.20;;;1.10;;
48487;SDS011;34289;48.572;13.378;2022-08-06T09:10:21;1.38;;;1.17;;
48487;SDS011;34289;48.572;13.378;2022-08-06T09:12:47;1.27;;;1.10;;
48487;SDS011;34289;48.572;13.378;2022-08-06T09:15:14;2.90;;;1.10;;
48487;SDS011;34289;48.572;13.378;2022-08-06T09:17:41;1.15;;;1.05;;
48487;SDS011;34289;48.572;13.378;2022-08-06T09:20:06;1.42;;;1.10;;
48487;SDS011;34289;48.572;13.378;2022-08-06T09:22:32;1.52;;;0.90;;
48487;SDS011;34289;48.572;13.378;2022-08-06T09:24:58;2.15;;;1.10;;
48487;SDS011;34289;48.572;13.378;2022-08-06T09:27:24;1.23;;;0.90;;
48487;SDS011;34289;48.572;13.378;2022-08-06T09:29:59;0.95;;;0.90;;
48487;SDS011;34289;48.572;13.378;2022-08-06T09:37:45;0.90;;;0.90;;
48487;SDS011;34289;48.572;13.378;2022-08-06T09:40:15;2.42;;;1.20;;
48487;SDS011;34289;48.572;13.378;2022-08-06T09:42:44;2.13;;;1.38;;
48487;SDS011;34289;48.572;13.378;2022-08-06T09:45:16;2.15;;;1.17;;
48487;SDS011;34289;48.572;13.378;2022-08-06T09:47:44;3.53;;;1.70;;
48487;SDS011;34289;48.572;13.378;2022-08-06T09:50:10;1.98;;;1.30;;
48487;SDS011;34289;48.572;13.378;2022-08-06T09:52:36;4.28;;;1.60;;
48487;SDS011;34289;48.572;13.378;2022-08-06T09:55:02;1.38;;;1.10;;
48487;SDS011;34289;48.572;13.378;2022-08-06T09:57:40;2.03;;;1.38;;
48487;SDS011;34289;48.572;13.378;2022-08-06T10:00:08;1.10;;;1.00;;
48487;SDS011;34289;48.572;13.378;2022-08-06T10:02:34;3.00;;;2.05;;
48487;SDS011;34289;48.572;13.378;2022-08-06T10:05:10;1.83;;;1.30;;
48487;SDS011;34289;48.572;13.378;2022-08-06T10:07:37;1.40;;;1.30;;
48487;SDS011;34289;48.572;13.378;2022-08-06T10:10:03;3.13;;;2.83;;
48487;SDS011;34289;48.572;13.378;2022-08-06T10:12:30;3.15;;;1.73;;
48487;SDS011;34289;48.572;13.378;2022-08-06T10:14:58;1.65;;;1.55;;
48487;SDS011;34289;48.572;13.378;2022-08-06T10:17:24;2.95;;;1.20;;
48487;SDS011;34289;48.572;13.378;2022-08-06T10:20:10;1.05;;;1.05;;
48487;SDS011;34289;48.572;13.378;2022-08-06T10:22:54;2.92;;;1.30;;
48487;SDS011;34289;48.572;13.378;2022-08-06T10:25:22;3.75;;;1.70;;
48487;SDS011;34289;48.572;13.378;2022-08-06T10:27:49;1.17;;;1.08;;
48487;SDS011;34289;48.572;13.378;2022-08-06T10:30:18;1.63;;;1.40;;
48487;SDS011;34289;48.572;13.378;2022-08-06T10:32:47;2.03;;;1.88;;
48487;SDS011;34289;48.572;13.378;2022-08-06T10:35:23;5.13;;;3.08;;
48487;SDS011;34289;48.572;13.378;2022-08-06T10:37:50;1.20;;;1.10;;
48487;SDS011;34289;48.572;13.378;2022-08-06T10:40:22;1.55;;;1.13;;
48487;SDS011;34289;48.572;13.378;2022-08-06T10:42:48;1.88;;;1.23;;
48487;SDS011;34289;48.572;13.378;2022-08-06T10:45:16;3.13;;;1.80;;
48487;SDS011;34289;48.572;13.378;2022-08-06T10:47:48;0.93;;;0.93;;
48487;SDS011;34289;48.572;13.378;2022-08-06T10:50:14;1.23;;;1.13;;
48487;SDS011;34289;48.572;13.378;2022-08-06T10:52:40;1.33;;;1.08;;
48487;SDS011;34289;48.572;13.378;2022-08-06T10:55:07;0.90;;;0.90;;
48487;SDS011;34289;48.572;13.378;2022-08-06T10:57:35;2.03;;;1.35;;
48487;SDS011;34289;48.572;13.378;2022-08-06T11:00:05;2.30;;;1.02;;
48487;SDS011;34289;48.572;13.378;2022-08-06T11:05:19;2.13;;;1.10;;
48487;SDS011;34289;48.572;13.378;2022-08-06T11:15:58;1.20;;;1.10;;
48487;SDS011;34289;48.572;13.378;2022-08-06T11:18:24;1.83;;;1.02;;
48487;SDS011;34289;48.572;13.378;2022-08-06T11:20:50;1.15;;;1.00;;
48487;SDS011;34289;48.572;13.378;2022-08-06T11:23:24;0.85;;;0.80;;
48487;SDS011;34289;48.572;13.378;2022-08-06T11:25:52;1.58;;;1.10;;
48487;SDS011;34289;48.572;13.378;2022-08-06T11:28:20;1.85;;;1.38;;
48487;SDS011;34289;48.572;13.378;2022-08-06T11:31:05;1.40;;;1.10;;
48487;SDS011;34289;48.572;13.378;2022-08-06T11:35:58;1.25;;;1.10;;
48487;SDS011;34289;48.572;13.378;2022-08-06T11:41:22;1.13;;;0.93;;
48487;SDS011;34289;48.572;13.378;2022-08-06T11:46:28;1.55;;;1.10;;
48487;SDS011;34289;48.572;13.378;2022-08-06T11:52:03;1.40;;;1.30;;
48487;SDS011;34289;48.572;13.378;2022-08-06T11:54:30;1.13;;;1.10;;
48487;SDS011;34289;48.572;13.378;2022-08-06T11:59:43;0.98;;;0.98;;
48487;SDS011;34289;48.572;13.378;2022-08-06T12:02:10;1.15;;;1.05;;
48487;SDS011;34289;48.572;13.378;2022-08-06T12:04:40;1.08;;;1.08;;
48487;SDS011;34289;48.572;13.378;2022-08-06T12:22:55;1.20;;;1.10;;
48487;SDS011;34289;48.572;13.378;2022-08-06T12:25:21;4.60;;;1.20;;
48487;SDS011;34289;48.572;13.378;2022-08-06T12:27:54;1.30;;;1.20;;
48487;SDS011;34289;48.572;13.378;2022-08-06T12:30:21;1.98;;;1.00;;
48487;SDS011;34289;48.572;13.378;2022-08-06T12:32:47;1.52;;;1.30;;
48487;SDS011;34289;48.572;13.378;2022-08-06T12:35:13;1.42;;;1.33;;
48487;SDS011;34289;48.572;13.378;2022-08-06T12:37:43;1.48;;;1.38;;
48487;SDS011;34289;48.572;13.378;2022-08-06T12:40:12;1.67;;;1.38;;
48487;SDS011;34289;48.572;13.378;2022-08-06T12:42:48;1.45;;;1.30;;
48487;SDS011;34289;48.572;13.378;2022-08-06T12:48:10;1.50;;;1.40;;
48487;SDS011;34289;48.572;13.378;2022-08-06T12:50:40;1.52;;;1.42;;
48487;SDS011;34289;48.572;13.378;2022-08-06T12:53:14;1.50;;;1.40;;
48487;SDS011;34289;48.572;13.378;2022-08-06T12:58:12;1.80;;;1.45;;
48487;SDS011;34289;48.572;13.378;2022-08-06T13:00:41;1.70;;;1.60;;
48487;SDS011;34289;48.572;13.378;2022-08-06T13:03:10;3.40;;;1.60;;
48487;SDS011;34289;48.572;13.378;2022-08-06T13:05:41;2.28;;;1.95;;
48487;SDS011;34289;48.572;13.378;2022-08-06T13:08:08;2.33;;;1.83;;
48487;SDS011;34289;48.572;13.378;2022-08-06T13:10:34;1.63;;;1.50;;
48487;SDS011;34289;48.572;13.378;2022-08-06T13:13:02;1.73;;;1.63;;
48487;SDS011;34289;48.572;13.378;2022-08-06T13:15:29;3.67;;;1.90;;
48487;SDS011;34289;48.572;13.378;2022-08-06T13:18:20;1.88;;;1.77;;
48487;SDS011;34289;48.572;13.378;2022-08-06T13:20:47;2.00;;;1.85;;
48487;SDS011;34289;48.572;13.378;2022-08-06T13:23:26;1.60;;;1.50;;
48487;SDS011;34289;48.572;13.378;2022-08-06T13:28:37;1.77;;;1.67;;
48487;SDS011;34289;48.572;13.378;2022-08-06T13:31:16;2.72;;;2.10;;
48487;SDS011;34289;48.572;13.378;2022-08-06T13:33:42;1.65;;;1.55;;
48487;SDS011;34289;48.572;13.378;2022-08-06T13:36:08;1.95;;;1.75;;
48487;SDS011;34289;48.572;13.378;2022-08-06T13:38:36;2.08;;;1.77;;
48487;SDS011;34289;48.572;13.378;2022-08-06T13:41:03;2.35;;;2.00;;
48487;SDS011;34289;48.572;13.378;2022-08-06T13:43:33;3.10;;;2.35;;
48487;SDS011;34289;48.572;13.378;2022-08-06T13:46:12;2.30;;;2.10;;
48487;SDS011;34289;48.572;13.378;2022-08-06T13:48:47;2.65;;;2.15;;
48487;SDS011;34289;48.572;13.378;2022-08-06T13:51:15;2.33;;;1.77;;
48487;SDS011;34289;48.572;13.378;2022-08-06T13:53:45;2.17;;;1.90;;
48487;SDS011;34289;48.572;13.378;2022-08-06T13:56:14;1.80;;;1.70;;
48487;SDS011;34289;48.572;13.378;2022-08-06T13:58:41;2.55;;;2.00;;
48487;SDS011;34289;48.572;13.378;2022-08-06T14:01:07;2.03;;;1.92;;
48487;SDS011;34289;48.572;13.378;2022-08-06T14:03:36;2.55;;;1.85;;
48487;SDS011;34289;48.572;13.378;2022-08-06T14:06:02;2.83;;;2.03;;
48487;SDS011;34289;48.572;13.378;2022-08-06T14:08:28;4.20;;;1.80;;
48487;SDS011;34289;48.572;13.378;2022-08-06T14:10:54;1.75;;;1.65;;
48487;SDS011;34289;48.572;13.378;2022-08-06T14:13:19;1.85;;;1.75;;
48487;SDS011;34289;48.572;13.378;2022-08-06T14:15:46;3.22;;;1.90;;
48487;SDS011;34289;48.572;13.378;2022-08-06T14:18:17;2.28;;;2.08;;
48487;SDS011;34289;48.572;13.378;2022-08-06T14:20:44;2.03;;;1.85;;
48487;SDS011;34289;48.572;13.378;2022-08-06T14:23:11;4.90;;;2.45;;
48487;SDS011;34289;48.572;13.378;2022-08-06T14:25:37;3.15;;;1.80;;
48487;SDS011;34289;48.572;13.378;2022-08-06T14:28:03;4.20;;;1.77;;
48487;SDS011;34289;48.572;13.378;2022-08-06T14:30:30;2.20;;;1.90;;
48487;SDS011;34289;48.572;13.378;2022-08-06T14:32:56;2.95;;;2.65;;
48487;SDS011;34289;48.572;13.378;2022-08-06T14:35:22;3.25;;;2.90;;
48487;SDS011;34289;48.572;13.378;2022-08-06T14:37:48;3.00;;;2.50;;
48487;SDS011;34289;48.572;13.378;2022-08-06T14:40:14;3.15;;;2.55;;
48487;SDS011;34289;48.572;13.378;2022-08-06T14:42:40;3.42;;;2.47;;
48487;SDS011;34289;48.572;13.378;2022-08-06T14:45:25;2.50;;;2.30;;
48487;SDS011;34289;48.572;13.378;2022-08-06T14:47:51;2.38;;;2.10;;
48487;SDS011;34289;48.572;13.378;2022-08-06T14:50:17;2.25;;;2.05;;
48487;SDS011;34289;48.572;13.378;2022-08-06T14:52:43;7.40;;;2.10;;
48487;SDS011;34289;48.572;13.378;2022-08-06T14:55:09;2.20;;;2.00;;
48487;SDS011;34289;48.572;13.378;2022-08-06T14:57:36;4.43;;;2.17;;
48487;SDS011;34289;48.572;13.378;2022-08-06T15:00:05;2.30;;;2.10;;
48487;SDS011;34289;48.572;13.378;2022-08-06T15:02:32;3.22;;;2.50;;
48487;SDS011;34289;48.572;13.378;2022-08-06T15:04:58;1.80;;;1.70;;
48487;SDS011;34289;48.572;13.378;2022-08-06T15:07:24;1.48;;;1.38;;
48487;SDS011;34289;48.572;13.378;2022-08-06T15:09:50;2.10;;;1.88;;
48487;SDS011;34289;48.572;13.378;2022-08-06T15:12:16;3.60;;;2.00;;
48487;SDS011;34289;48.572;13.378;2022-08-06T15:14:42;2.65;;;1.90;;
48487;SDS011;34289;48.572;13.378;2022-08-06T15:17:08;2.67;;;1.90;;
48487;SDS011;34289;48.572;13.378;2022-08-06T15:19:34;2.17;;;1.90;;
48487;SDS011;34289;48.572;13.378;2022-08-06T15:22:00;9.55;;;8.38;;
48487;SDS011;34289;48.572;13.378;2022-08-06T15:24:26;2.33;;;1.80;;
48487;SDS011;34289;48.572;13.378;2022-08-06T15:26:53;4.13;;;3.40;;
48487;SDS011;34289;48.572;13.378;2022-08-06T15:29:22;2.38;;;2.17;;
48487;SDS011;34289;48.572;13.378;2022-08-06T15:31:51;2.45;;;2.25;;
48487;SDS011;34289;48.572;13.378;2022-08-06T15:34:17;2.85;;;2.60;;
48487;SDS011;34289;48.572;13.378;2022-08-06T15:36:43;3.53;;;2.90;;
48487;SDS011;34289;48.572;13.378;2022-08-06T15:39:09;4.40;;;2.67;;
48487;SDS011;34289;48.572;13.378;2022-08-06T15:41:34;4.32;;;2.78;;
48487;SDS011;34289;48.572;13.378;2022-08-06T15:44:00;4.13;;;2.47;;
48487;SDS011;34289;48.572;13.378;2022-08-06T15:46:26;5.15;;;2.10;;
48487;SDS011;34289;48.572;13.378;2022-08-06T15:48:51;2.20;;;2.00;;
48487;SDS011;34289;48.572;13.378;2022-08-06T15:51:22;2.30;;;2.10;;
48487;SDS011;34289;48.572;13.378;2022-08-06T15:53:49;2.20;;;2.00;;
48487;SDS011;34289;48.572;13.378;2022-08-06T15:56:16;2.10;;;2.00;;
48487;SDS011;34289;48.572;13.378;2022-08-06T15:58:42;5.47;;;1.95;;
48487;SDS011;34289;48.572;13.378;2022-08-06T16:01:08;1.75;;;1.65;;
48487;SDS011;34289;48.572;13.378;2022-08-06T16:03:34;2.20;;;2.00;;
48487;SDS011;34289;48.572;13.378;2022-08-06T16:06:00;3.75;;;1.90;;
48487;SDS011;34289;48.572;13.378;2022-08-06T16:08:25;4.28;;;2.30;;
48487;SDS011;34289;48.572;13.378;2022-08-06T16:10:51;2.45;;;2.15;;
48487;SDS011;34289;48.572;13.378;2022-08-06T16:13:17;3.05;;;2.67;;
48487;SDS011;34289;48.572;13.378;2022-08-06T16:15:47;2.08;;;1.92;;